Terminal Aerodrome Forecast
Issued by NWS Sterling, VA

Current Version | Previous Version | Graphics & Text | Print | Product List | Glossary On
Versions: 1 2 3 4 5 6 7 8 9 10 11 12 13 14 15 16
830
FTUS41 KLWX 142334
TAFMRB
TAF
KMRB 142334Z 1500/1524 VRB03KT 2SM -RA OVC003
     FM150300 VRB03KT 1SM BR OVC003
     FM150600 VRB03KT P6SM SCT003 OVC015
     FM151200 33006KT P6SM SCT200=

USA.gov is the U.S. government's official web portal to all federal, state and local government web resources and services.